MZBZMHLM

Guest
Details From MZBZ - Philip S W Goldson Intl
To MHLM - La Mesa Intl
Flight Number -
Tags generated
Created
Modified
Stats Distance 127 nm / 236 km
Max Altitude 8,900 ft / 2,713 m
Waypoints 4
Social Downloads 0
Likes 0
Share VATSIM

Download

Looking for another format? Having issues loading an existing format? Contact us
Advertisement - Login to hide

Notes

Basic altitude profile: - Ascent Rate: 2500ft/min - Ascent Speed: 100kts - Cruise Altitude: 35000ft - Cruise Speed: 120kts - Descent Rate: 1500ft/min - Descent Speed: 120kts Options: - Use NATs: yes - Use PACOTS: yes - Use low airways: yes - Use high airways: yes

Route

MZBZ NALMA B753 OMOSO MHLM

ID Type Via Altitude Latitude Longitude Leg Dist Tot Dist Heading (true) Name
O MZBZ APT - 0 ft / 0 m 17.53914˚ -88.30820˚ - 0 nm - Philip S W Goldson Intl
NALMA FIX - 8,900 ft / 2,713 m 17.12833˚ -88.23333˚ 25 nm 25 nm 170° / 170° -
OMOSO FIX B753 (AWY-LO) 8,700 ft / 2,652 m 16.12500˚ -88.03667˚ 61 nm 86 nm 169° / 169° -
O MHLM APT - 0 ft / 0 m 15.45196˚ -87.92415˚ 40 nm 127 nm 171° / 171° La Mesa Intl

Altitude Profile

Advertisement - Login to hide

MZBZ

Details ICAO MZBZ (BZE)
Name Philip S W Goldson Intl
Region Belize
Timezone America/Belize (UTC-6.0)
Stats Elevation 15 ft / 5 m (AMSL)
Location 17.539144° -88.308201°
Runways 1
Magnetic Variation 0.557° W

METAR

MZBZ 131300Z 00000KT 9999 FEW017 15/15 A3016 Q1021 NOSIG

Decode

TAF

Not found

Departure Runways

ID Width Length Bearing (true) Bearing (mag) Surface Threshold Offset Overrun Length
07 150 ft / 46 m 7,097 ft / 2,163 m 76.65° 77.21° Asphalt 0 ft / 0 m 200 ft / 61 m
25 150 ft / 46 m 7,097 ft / 2,163 m 256.66° 257.22° Asphalt 0 ft / 0 m 200 ft / 61 m

MHLM

Details ICAO MHLM (SAP)
Name La Mesa Intl
Region Honduras
Timezone America/Tegucigalpa (UTC-6.0)
Stats Elevation 91 ft / 28 m (AMSL)
Location 15.451957° -87.924153°
Runways 1
Magnetic Variation 0.473° W

METAR

MHLM 131300Z 18005KT 9999 FEW022 BKN080 19/19 Q1021 A3015 NOSIG

Decode

TAF

Not found

Destination Runways

ID Width Length Bearing (true) Bearing (mag) Surface Threshold Offset Overrun Length
04 148 ft / 45 m 9,232 ft / 2,814 m 40.08° 40.55° Concrete 656 ft / 200 m 262 ft / 80 m
22 148 ft / 45 m 9,232 ft / 2,814 m 220.08° 220.55° Concrete 0 ft / 0 m 492 ft / 150 m

Popular Alternatives